createdAt,value
2019-05-02T00:00:12.983Z,85.54
2019-05-02T00:02:41.901Z,86.21
2019-05-02T00:05:11.488Z,85.79
2019-05-02T00:07:41.847Z,86.57
2019-05-02T00:10:13.483Z,85.95
2019-05-02T00:12:43.235Z,85.56
2019-05-02T00:15:14.962Z,86.11
2019-05-02T00:17:43.586Z,86.10
2019-05-02T00:20:13.890Z,86.35
2019-05-02T00:22:42.503Z,86.10
2019-05-02T00:25:16.078Z,86.33
2019-05-02T00:27:41.894Z,86.53
2019-05-02T00:30:12.692Z,86.93
2019-05-02T00:32:41.322Z,86.68
2019-05-02T00:35:09.925Z,86.26
2019-05-02T00:37:38.552Z,86.52
2019-05-02T00:40:07.689Z,86.52
2019-05-02T00:42:36.331Z,86.72
2019-05-02T00:45:05.226Z,86.48
2019-05-02T00:47:49.814Z,86.17
2019-05-02T00:50:18.848Z,86.79
2019-05-02T00:52:47.599Z,87.33
2019-05-02T00:55:16.239Z,87.69
2019-05-02T00:57:44.701Z,87.96
2019-05-02T01:00:18.190Z,87.98
2019-05-02T01:02:49.674Z,87.87
2019-05-02T01:05:18.303Z,87.93
2019-05-02T01:07:46.921Z,88.29
2019-05-02T01:10:17.334Z,88.03
2019-05-02T01:12:46.244Z,88.28
2019-05-02T01:15:14.986Z,88.25
2019-05-02T01:17:43.507Z,88.21
2019-05-02T01:20:12.468Z,88.50
2019-05-02T01:22:41.196Z,89.12
2019-05-02T01:25:15.009Z,88.80
2019-05-02T01:27:46.873Z,88.58
2019-05-02T01:30:44.566Z,88.67
2019-05-02T01:33:28.324Z,88.99
2019-05-02T01:36:25.620Z,88.93
2019-05-02T01:38:54.159Z,88.53
2019-05-02T01:41:23.967Z,88.25
2019-05-02T01:43:55.068Z,88.48
2019-05-02T01:46:24.195Z,88.53
2019-05-02T01:48:52.857Z,88.39
2019-05-02T01:51:21.359Z,88.53
2019-05-02T01:53:49.898Z,88.73
2019-05-02T01:56:18.514Z,88.62
2019-05-02T01:58:47.042Z,88.11
2019-05-02T02:01:16.219Z,88.29
2019-05-02T02:03:46.982Z,88.14
2019-05-02T02:06:15.788Z,88.56
2019-05-02T02:08:44.528Z,88.81
2019-05-02T02:11:13.141Z,88.72
2019-05-02T02:13:41.758Z,89.02
2019-05-02T02:16:10.501Z,88.44
2019-05-02T02:18:45.235Z,88.04
2019-05-02T02:21:31.051Z,88.29
2019-05-02T02:24:06.940Z,88.70
2019-05-02T02:26:35.481Z,88.93
2019-05-02T02:29:07.884Z,88.57
2019-05-02T02:31:39.723Z,88.89
2019-05-02T02:34:05.326Z,89.07
2019-05-02T02:36:34.696Z,89.15
2019-05-02T02:39:06.832Z,89.51
2019-05-02T02:41:36.571Z,90.07
2019-05-02T02:44:33.574Z,88.93
2019-05-02T02:47:04.524Z,89.61
2019-05-02T02:49:33.066Z,89.40
2019-05-02T02:52:04.933Z,89.14
2019-05-02T02:54:36.580Z,89.87
2019-05-02T02:57:03.238Z,89.88
2019-05-02T02:59:31.755Z,89.58
2019-05-02T03:02:09.214Z,89.95
2019-05-02T03:04:30.835Z,90.21
2019-05-02T03:06:59.550Z,89.65
2019-05-02T03:09:29.101Z,89.21
2019-05-02T03:12:17.519Z,89.24
2019-05-02T03:14:51.118Z,89.38
2019-05-02T03:17:26.429Z,89.66
2019-05-02T03:19:54.333Z,88.56
2019-05-02T03:22:21.077Z,87.65
2019-05-02T03:24:49.616Z,88.16
2019-05-02T03:27:18.249Z,88.57
2019-05-02T03:29:46.864Z,89.10
2019-05-02T03:32:30.169Z,88.76
2019-05-02T03:34:51.698Z,88.99
2019-05-02T03:37:16.868Z,88.33
2019-05-02T03:39:49.534Z,87.68
2019-05-02T03:42:17.247Z,86.98
2019-05-02T03:44:54.906Z,87.77
2019-05-02T03:47:16.565Z,87.06
2019-05-02T03:49:48.539Z,87.29
2019-05-02T03:52:16.032Z,87.53
2019-05-02T03:54:49.959Z,88.51
2019-05-02T03:57:15.365Z,89.30
2019-05-02T03:59:43.988Z,89.34
2019-05-02T04:02:20.361Z,89.96
2019-05-02T04:04:45.023Z,89.44
2019-05-02T04:07:14.236Z,90.15
2019-05-02T04:09:42.957Z,88.70
2019-05-02T04:12:18.664Z,88.10
2019-05-02T04:14:42.250Z,87.78
2019-05-02T04:17:11.067Z,87.66
2019-05-02T04:19:40.309Z,88.15
2019-05-02T04:22:11.949Z,87.31
2019-05-02T04:24:40.817Z,87.71
2019-05-02T04:27:10.529Z,87.99
2019-05-02T04:29:39.293Z,88.14
2019-05-02T04:32:11.836Z,88.66
2019-05-02T04:34:38.486Z,88.65
2019-05-02T04:37:06.997Z,88.71
2019-05-02T04:39:38.846Z,88.73
2019-05-02T04:42:16.341Z,88.68
2019-05-02T04:44:47.827Z,88.87
2019-05-02T04:47:16.669Z,88.91
2019-05-02T04:49:39.294Z,89.10
2019-05-02T04:52:11.648Z,87.51
2019-05-02T04:54:39.045Z,87.75
2019-05-02T04:57:08.545Z,87.25
2019-05-02T04:59:39.505Z,86.98
2019-05-02T05:02:08.972Z,86.23
2019-05-02T05:04:42.388Z,86.54
2019-05-02T05:07:09.390Z,85.72
2019-05-02T05:09:39.919Z,84.36
2019-05-02T05:12:08.952Z,83.13
2019-05-02T05:14:41.266Z,82.81
2019-05-02T05:17:08.124Z,81.64
2019-05-02T05:19:37.347Z,81.31
2019-05-02T05:22:08.810Z,80.77
2019-05-02T05:24:42.608Z,80.49
2019-05-02T05:27:13.172Z,81.03
2019-05-02T05:29:41.953Z,80.37
2019-05-02T05:32:10.571Z,79.35
2019-05-02T05:34:39.183Z,79.08
2019-05-02T05:37:09.522Z,79.63
2019-05-02T05:39:43.208Z,80.65
2019-05-02T05:42:10.700Z,80.79
2019-05-02T05:44:39.887Z,78.37
2019-05-02T05:47:12.190Z,78.34
2019-05-02T05:49:39.716Z,78.57
2019-05-02T05:52:08.335Z,78.07
2019-05-02T05:54:38.360Z,77.65
2019-05-02T05:57:07.657Z,76.62
2019-05-02T05:59:38.030Z,77.73
2019-05-02T06:02:13.161Z,76.37
2019-05-02T06:04:38.696Z,76.53
2019-05-02T06:07:07.473Z,77.98
2019-05-02T06:09:36.012Z,77.91
2019-05-02T06:12:04.730Z,76.38
2019-05-02T06:14:34.560Z,78.06
2019-05-02T06:17:03.485Z,77.35
2019-05-02T06:19:31.993Z,77.31
2019-05-02T06:22:00.599Z,75.77
2019-05-02T06:24:29.128Z,75.31
2019-05-02T06:26:57.657Z,74.20
2019-05-02T06:29:26.275Z,76.97
2019-05-02T06:32:00.409Z,76.21
2019-05-02T06:34:28.651Z,76.17
2019-05-02T06:36:57.331Z,76.14
2019-05-02T06:39:27.049Z,76.98
2019-05-02T06:41:57.514Z,76.69
2019-05-02T06:44:26.935Z,75.12
2019-05-02T06:46:59.147Z,76.36
2019-05-02T06:49:26.126Z,75.06
2019-05-02T06:51:56.217Z,75.89
2019-05-02T06:54:25.011Z,74.22
2019-05-02T06:56:53.537Z,74.29
2019-05-02T06:59:22.160Z,74.96
2019-05-02T07:01:52.344Z,75.36
2019-05-02T07:04:22.885Z,75.32
2019-05-02T07:06:58.862Z,78.21
2019-05-02T07:09:22.542Z,75.96
2019-05-02T07:11:57.473Z,74.76
2019-05-02T07:14:23.604Z,75.33
2019-05-02T07:16:58.969Z,73.20
2019-05-02T07:19:32.180Z,72.66
2019-05-02T07:22:04.182Z,72.60
2019-05-02T07:24:32.713Z,70.46
2019-05-02T07:27:02.359Z,71.02
2019-05-02T07:29:31.435Z,70.53
2019-05-02T07:32:00.060Z,71.70
2019-05-02T07:34:28.553Z,70.39
2019-05-02T07:36:57.180Z,70.56
2019-05-02T07:39:25.874Z,70.77
2019-05-02T07:41:54.483Z,68.90
2019-05-02T07:44:27.266Z,67.93
2019-05-02T07:46:56.897Z,67.36
2019-05-02T07:49:26.614Z,67.40
2019-05-02T07:51:57.637Z,69.44
2019-05-02T07:54:26.798Z,68.25
2019-05-02T07:56:55.459Z,70.74
2019-05-02T07:59:25.128Z,72.64
2019-05-02T08:01:53.897Z,70.87
2019-05-02T08:04:22.580Z,67.61
2019-05-02T08:06:51.090Z,67.50
2019-05-02T08:09:19.847Z,66.36
2019-05-02T08:11:48.520Z,66.13
2019-05-02T08:14:17.145Z,66.31
2019-05-02T08:16:45.824Z,66.16
2019-05-02T08:19:14.315Z,66.02
2019-05-02T08:21:42.816Z,64.65
2019-05-02T08:24:11.878Z,65.05
2019-05-02T08:26:58.384Z,66.06
2019-05-02T08:29:28.918Z,65.32
2019-05-02T08:31:57.712Z,62.30
2019-05-02T08:34:30.957Z,60.45
2019-05-02T08:37:03.289Z,58.18
2019-05-02T08:39:33.754Z,55.44
2019-05-02T08:42:01.338Z,51.84
2019-05-02T08:44:29.860Z,52.54
2019-05-02T08:46:58.483Z,52.30
2019-05-02T08:49:27.136Z,51.92
2019-05-02T08:51:55.741Z,51.83
2019-05-02T08:54:27.949Z,49.91
2019-05-02T08:56:59.198Z,48.95
2019-05-02T08:59:26.206Z,47.98
2019-05-02T09:01:54.994Z,48.06
2019-05-02T09:04:24.256Z,49.90
2019-05-02T09:06:58.696Z,48.31
2019-05-02T09:09:27.959Z,49.29
2019-05-02T09:12:06.884Z,48.96
2019-05-02T09:14:25.270Z,46.65
2019-05-02T09:16:53.889Z,46.42
2019-05-02T09:19:26.465Z,48.89
2019-05-02T09:21:52.863Z,50.79
2019-05-02T09:24:23.973Z,47.08
2019-05-02T09:26:52.053Z,45.45
2019-05-02T09:29:22.239Z,45.76
2019-05-02T09:31:52.694Z,42.34
2019-05-02T09:34:22.924Z,45.47
2019-05-02T09:36:52.928Z,44.94
2019-05-02T09:39:22.732Z,42.43
2019-05-02T09:41:52.655Z,44.78
2019-05-02T09:44:22.451Z,45.11
2019-05-02T09:46:53.073Z,45.20
2019-05-02T09:49:22.159Z,46.00
2019-05-02T09:51:59.175Z,47.02
2019-05-02T09:54:23.104Z,44.92
2019-05-02T09:56:52.485Z,43.27
2019-05-02T09:59:32.847Z,44.02
2019-05-02T10:02:03.379Z,44.16
2019-05-02T10:04:32.558Z,41.08
2019-05-02T10:07:02.521Z,40.38
2019-05-02T10:09:32.413Z,39.15
2019-05-02T10:12:02.112Z,43.76
2019-05-02T10:14:33.012Z,42.96
2019-05-02T10:17:07.005Z,36.48
2019-05-02T10:19:33.227Z,35.17
2019-05-02T10:22:02.075Z,35.91
2019-05-02T10:24:32.220Z,39.10
2019-05-02T10:27:04.175Z,37.59
2019-05-02T10:29:32.917Z,34.24
2019-05-02T10:32:01.896Z,38.31
2019-05-02T10:34:32.787Z,41.52
2019-05-02T10:37:02.940Z,41.83
2019-05-02T10:39:34.029Z,37.68
2019-05-02T10:42:02.375Z,42.32
2019-05-02T10:44:32.633Z,41.44
2019-05-02T10:47:02.902Z,43.11
2019-05-02T10:49:43.711Z,40.81
2019-05-02T10:52:12.369Z,44.22
2019-05-02T10:54:42.175Z,37.97
2019-05-02T10:57:12.623Z,38.92
2019-05-02T10:59:42.056Z,33.59
2019-05-02T11:02:42.485Z,37.89
2019-05-02T11:05:16.910Z,36.41
2019-05-02T11:07:47.866Z,40.13
2019-05-02T11:10:16.716Z,39.90
2019-05-02T11:12:56.323Z,39.90
2019-05-02T11:15:43.915Z,42.00
2019-05-02T11:18:13.116Z,40.53
2019-05-02T11:20:42.190Z,42.74
2019-05-02T11:23:12.675Z,39.83
2019-05-02T11:25:42.121Z,42.23
2019-05-02T11:28:12.421Z,43.06
2019-05-02T11:30:42.300Z,40.03
2019-05-02T11:33:13.352Z,33.44
2019-05-02T11:35:48.784Z,33.44
2019-05-02T11:38:25.963Z,34.51
2019-05-02T11:40:42.661Z,40.09
2019-05-02T11:43:11.617Z,40.09
2019-05-02T11:45:40.228Z,40.33
2019-05-02T11:48:11.339Z,43.58
2019-05-02T11:50:39.512Z,41.30
2019-05-02T11:53:22.276Z,39.76
2019-05-02T11:55:41.311Z,38.53
2019-05-02T11:58:10.643Z,40.65
2019-05-02T12:00:44.514Z,43.60
2019-05-02T12:03:18.390Z,44.93
2019-05-02T12:05:47.045Z,45.36
2019-05-02T12:08:15.692Z,47.66
2019-05-02T12:10:44.428Z,45.72
2019-05-02T12:13:15.930Z,43.77
2019-05-02T12:15:44.393Z,41.58
2019-05-02T12:18:13.026Z,38.98
2019-05-02T12:20:42.539Z,40.77
2019-05-02T12:23:13.000Z,35.27
2019-05-02T12:25:42.295Z,35.27
2019-05-02T12:28:11.973Z,36.38
2019-05-02T12:30:41.873Z,38.12
2019-05-02T12:33:12.256Z,39.44
2019-05-02T12:35:43.304Z,41.83
2019-05-02T12:38:12.295Z,39.65
2019-05-02T12:40:42.197Z,42.60
2019-05-02T12:43:12.029Z,44.24
2019-05-02T12:45:42.180Z,42.31
2019-05-02T12:48:12.983Z,38.14
2019-05-02T12:50:42.004Z,40.24
2019-05-02T12:53:12.615Z,42.08
2019-05-02T12:55:42.161Z,40.40
2019-05-02T12:58:12.497Z,41.27
2019-05-02T13:00:43.105Z,40.08
2019-05-02T13:03:31.691Z,35.63
2019-05-02T13:06:00.579Z,35.42
2019-05-02T13:08:29.503Z,33.84
2019-05-02T13:11:17.900Z,35.70
2019-05-02T13:13:46.690Z,37.50
2019-05-02T13:16:17.365Z,38.76
2019-05-02T13:18:45.990Z,39.67
2019-05-02T13:21:20.818Z,36.34
2019-05-02T13:24:07.529Z,33.93
2019-05-02T13:26:34.355Z,37.63
2019-05-02T13:29:03.138Z,42.67
2019-05-02T13:31:38.258Z,42.05
2019-05-02T13:34:22.258Z,43.04
2019-05-02T13:36:51.925Z,43.32
2019-05-02T13:39:32.647Z,45.84
2019-05-02T13:42:01.767Z,45.36
2019-05-02T13:44:33.108Z,43.47
2019-05-02T13:47:02.707Z,42.78
2019-05-02T13:49:32.429Z,43.10
2019-05-02T13:52:02.514Z,44.37
2019-05-02T13:54:32.960Z,44.08
2019-05-02T13:57:03.135Z,45.81
2019-05-02T13:59:33.727Z,46.18
2019-05-02T14:02:05.187Z,46.67
2019-05-02T14:04:33.957Z,47.85
2019-05-02T14:07:03.147Z,48.19
2019-05-02T14:09:50.853Z,48.88
2019-05-02T14:12:55.028Z,49.75
2019-05-02T14:15:26.761Z,50.43
2019-05-02T14:17:55.507Z,52.74
2019-05-02T14:20:24.218Z,53.72
2019-05-02T14:22:52.998Z,51.99
2019-05-02T14:25:22.336Z,52.22
2019-05-02T14:27:55.324Z,51.40
2019-05-02T14:30:36.012Z,52.30
2019-05-02T14:32:55.235Z,52.96
2019-05-02T14:35:28.302Z,53.74
2019-05-02T14:38:13.777Z,56.13
2019-05-02T14:40:53.455Z,57.85
2019-05-02T14:43:44.494Z,63.23
2019-05-02T14:46:12.461Z,65.88
2019-05-02T14:48:45.272Z,65.95
2019-05-02T14:51:16.562Z,66.78
2019-05-02T14:53:43.468Z,69.56
2019-05-02T14:56:17.699Z,71.19
2019-05-02T14:58:46.419Z,71.35
2019-05-02T15:01:17.138Z,70.78
2019-05-02T15:03:45.557Z,72.07
2019-05-02T15:06:14.183Z,72.62
2019-05-02T15:08:44.899Z,73.11
2019-05-02T15:11:13.354Z,72.58
2019-05-02T15:13:43.672Z,73.70
2019-05-02T15:16:17.768Z,74.45
2019-05-02T15:18:47.540Z,73.77
2019-05-02T15:21:22.349Z,74.02
2019-05-02T15:24:33.346Z,75.90
2019-05-02T15:27:05.530Z,77.20
2019-05-02T15:29:29.406Z,76.88
2019-05-02T15:32:16.485Z,76.73
2019-05-02T15:35:02.386Z,75.66
2019-05-02T15:37:32.160Z,74.74
2019-05-02T15:42:33.961Z,73.74
2019-05-02T15:45:05.597Z,74.47
2019-05-02T15:47:37.070Z,72.80
2019-05-02T15:50:04.523Z,74.50
2019-05-02T15:52:34.975Z,74.34
2019-05-02T15:55:04.379Z,73.18
2019-05-02T15:57:43.136Z,74.12
2019-05-02T16:00:05.773Z,73.19
2019-05-02T16:02:34.315Z,73.99
2019-05-02T16:05:05.426Z,73.68
2019-05-02T16:07:38.127Z,74.32
2019-05-02T16:10:04.801Z,74.92
2019-05-02T16:12:36.050Z,75.28
2019-05-02T16:15:12.944Z,76.89
2019-05-02T16:17:35.946Z,79.36
2019-05-02T16:20:16.770Z,78.50
2019-05-02T16:22:49.603Z,79.32
2019-05-02T16:25:20.142Z,82.16
2019-05-02T16:27:47.256Z,83.12
2019-05-02T16:30:22.139Z,84.31
2019-05-02T16:32:54.148Z,86.39
2019-05-02T16:35:23.868Z,86.20
2019-05-02T16:37:55.994Z,87.41
2019-05-02T16:40:29.754Z,87.72
2019-05-02T16:42:55.786Z,88.88
2019-05-02T16:45:24.654Z,88.72
2019-05-02T16:47:58.626Z,89.52
2019-05-02T16:50:27.468Z,89.16
2019-05-02T16:52:54.477Z,90.47
2019-05-02T16:55:26.607Z,89.53
2019-05-02T16:57:56.621Z,89.85
2019-05-02T17:00:24.869Z,90.19
2019-05-02T17:02:53.596Z,91.47
2019-05-02T17:05:22.335Z,91.79
2019-05-02T17:08:10.857Z,91.81
2019-05-02T17:10:52.086Z,92.31
2019-05-02T17:13:17.681Z,91.68
2019-05-02T17:15:46.330Z,91.72
2019-05-02T17:18:17.995Z,91.32
2019-05-02T17:20:46.970Z,91.31
2019-05-02T17:23:16.193Z,91.09
2019-05-02T17:25:44.904Z,91.32
2019-05-02T17:28:13.516Z,91.27
2019-05-02T17:30:43.062Z,92.13
2019-05-02T17:33:15.902Z,92.65
2019-05-02T17:35:49.360Z,92.19
2019-05-02T17:38:12.710Z,92.39
2019-05-02T17:40:42.205Z,92.42
2019-05-02T17:43:11.031Z,92.29
2019-05-02T17:45:40.315Z,92.64
2019-05-02T17:48:15.689Z,91.97
2019-05-02T17:50:59.550Z,92.36
2019-05-02T17:53:33.781Z,92.14
2019-05-02T17:55:59.227Z,92.93
2019-05-02T17:58:27.743Z,92.85
2019-05-02T18:01:00.162Z,92.55
2019-05-02T18:03:31.131Z,93.10
2019-05-02T18:05:59.373Z,92.24
2019-05-02T18:08:27.981Z,92.73
2019-05-02T18:11:00.137Z,93.09
2019-05-02T18:13:29.174Z,92.22
2019-05-02T18:15:57.521Z,92.67
2019-05-02T18:18:26.165Z,92.68
2019-05-02T18:20:54.803Z,92.13
2019-05-02T18:23:27.391Z,92.73
2019-05-02T18:25:57.411Z,93.27
2019-05-02T18:28:26.430Z,93.39
2019-05-02T18:30:57.181Z,93.28
2019-05-02T18:33:25.386Z,92.33
2019-05-02T18:35:54.120Z,91.94
2019-05-02T18:38:22.758Z,93.15
2019-05-02T18:40:52.450Z,93.11
2019-05-02T18:43:22.387Z,93.48
2019-05-02T18:45:51.604Z,94.23
2019-05-02T18:48:21.832Z,93.60
2019-05-02T18:50:52.616Z,93.26
2019-05-02T18:53:25.708Z,93.66
2019-05-02T18:55:52.247Z,93.14
2019-05-02T18:58:22.714Z,93.35
2019-05-02T19:00:52.101Z,93.04
2019-05-02T19:03:22.860Z,93.36
2019-05-02T19:05:56.673Z,93.45
2019-05-02T19:08:29.141Z,94.38
2019-05-02T19:11:04.744Z,94.63
2019-05-02T19:13:23.519Z,94.79
2019-05-02T19:15:53.443Z,94.21
2019-05-02T19:18:22.438Z,94.08
2019-05-02T19:21:00.342Z,94.70
2019-05-02T19:23:31.982Z,94.68
2019-05-02T19:26:02.314Z,94.85
2019-05-02T19:29:02.301Z,95.09
2019-05-02T19:31:44.401Z,95.03
2019-05-02T19:34:07.460Z,94.25
2019-05-02T19:36:36.174Z,93.41
2019-05-02T19:39:09.835Z,93.76
2019-05-02T19:41:39.021Z,94.17
2019-05-02T19:44:08.448Z,94.07
2019-05-02T19:46:38.871Z,94.68
2019-05-02T19:49:12.483Z,94.84
2019-05-02T19:51:38.388Z,95.08
2019-05-02T19:54:07.213Z,94.91
2019-05-02T19:56:45.331Z,94.68
2019-05-02T19:59:06.586Z,94.42
2019-05-02T20:01:35.392Z,94.54
2019-05-02T20:04:06.101Z,93.33
2019-05-02T20:06:34.865Z,92.88
2019-05-02T20:09:08.288Z,92.45
2019-05-02T20:11:36.317Z,92.11
2019-05-02T20:14:09.302Z,92.28
2019-05-02T20:16:45.788Z,92.02
2019-05-02T20:19:17.274Z,92.41
2019-05-02T20:21:57.149Z,92.40
2019-05-02T20:24:49.160Z,91.91
2019-05-02T20:27:15.444Z,91.16
2019-05-02T20:29:44.417Z,89.56
2019-05-02T20:32:13.129Z,87.86
2019-05-02T20:34:41.936Z,88.09
2019-05-02T20:37:12.610Z,87.37
2019-05-02T20:39:41.628Z,83.58
2019-05-02T20:42:12.103Z,82.84
2019-05-02T20:44:41.891Z,81.76
2019-05-02T20:47:14.112Z,82.41
2019-05-02T20:49:42.640Z,82.77
2019-05-02T20:52:11.937Z,83.30
2019-05-02T20:54:42.679Z,82.54
2019-05-02T20:57:11.998Z,82.85
2019-05-02T20:59:41.701Z,81.68
2019-05-02T21:02:12.242Z,83.03
2019-05-02T21:04:42.541Z,81.54
2019-05-02T21:07:19.010Z,83.12
2019-05-02T21:09:54.204Z,82.45
2019-05-02T21:12:22.910Z,83.00
2019-05-02T21:14:52.320Z,81.72
2019-05-02T21:17:22.077Z,81.70
2019-05-02T21:19:50.804Z,81.94
2019-05-02T21:22:24.157Z,81.86
2019-05-02T21:24:53.018Z,81.58
2019-05-02T21:27:21.911Z,81.35
2019-05-02T21:29:52.254Z,81.88
2019-05-02T21:32:22.926Z,82.39
2019-05-02T21:34:52.025Z,82.23
2019-05-02T21:37:22.619Z,81.79
2019-05-02T21:39:52.069Z,81.81
2019-05-02T21:42:22.556Z,82.24
2019-05-02T21:44:51.824Z,81.89
2019-05-02T21:47:22.319Z,81.70
2019-05-02T21:50:01.825Z,80.98
2019-05-02T21:52:55.967Z,81.78
2019-05-02T21:55:52.068Z,82.17
2019-05-02T21:58:21.589Z,82.55
2019-05-02T22:00:59.314Z,83.60
2019-05-02T22:03:27.849Z,83.64
2019-05-02T22:05:56.748Z,83.74
2019-05-02T22:08:25.404Z,83.67
2019-05-02T22:10:53.928Z,83.69
2019-05-02T22:13:22.573Z,83.01
2019-05-02T22:15:51.656Z,83.34
2019-05-02T22:18:21.633Z,83.94
2019-05-02T22:20:52.245Z,84.26
2019-05-02T22:23:20.911Z,85.08
2019-05-02T22:25:49.456Z,84.58
2019-05-02T22:28:18.000Z,85.28
2019-05-02T22:30:46.520Z,85.41
2019-05-02T22:33:15.041Z,86.09
2019-05-02T22:35:43.693Z,86.11
2019-05-02T22:38:28.254Z,86.49
2019-05-02T22:40:58.169Z,86.64
2019-05-02T22:43:26.684Z,86.17
2019-05-02T22:45:55.196Z,86.26
2019-05-02T22:48:23.834Z,86.02
2019-05-02T22:50:52.387Z,85.14
2019-05-02T22:53:21.605Z,85.25
2019-05-02T22:55:51.801Z,85.41
2019-05-02T22:58:21.888Z,84.86
2019-05-02T23:00:52.227Z,84.72
2019-05-02T23:03:21.501Z,85.29
2019-05-02T23:05:52.612Z,84.45
2019-05-02T23:08:21.954Z,85.11
2019-05-02T23:10:51.937Z,85.22
2019-05-02T23:13:21.976Z,84.33
2019-05-02T23:15:52.154Z,84.31
2019-05-02T23:18:22.686Z,83.97
2019-05-02T23:20:52.610Z,83.85
2019-05-02T23:23:21.583Z,84.32
2019-05-02T23:26:13.811Z,83.83
2019-05-02T23:28:44.563Z,84.33
2019-05-02T23:31:14.060Z,84.03
2019-05-02T23:33:57.913Z,84.68
2019-05-02T23:36:28.240Z,83.41
2019-05-02T23:38:57.404Z,83.63
2019-05-02T23:41:26.141Z,84.10
2019-05-02T23:43:54.880Z,83.85
2019-05-02T23:46:23.605Z,84.85
2019-05-02T23:48:52.685Z,85.54
2019-05-02T23:51:22.588Z,86.77
2019-05-02T23:53:52.794Z,85.85
2019-05-02T23:56:22.146Z,86.75
2019-05-02T23:58:51.948Z,86.13
